createdAt,value
2018-11-26T00:00:15.673Z,51.20
2018-11-26T00:02:44.169Z,52.90
2018-11-26T00:05:12.690Z,49.83
2018-11-26T00:07:41.126Z,52.47
2018-11-26T00:10:20.725Z,53.23
2018-11-26T00:12:49.168Z,51.90
2018-11-26T00:15:17.649Z,49.07
2018-11-26T00:17:46.103Z,54.50
2018-11-26T00:20:14.587Z,49.40
2018-11-26T00:22:43.047Z,53.57
2018-11-26T00:25:11.535Z,54.23
2018-11-26T00:27:40.237Z,54.27
2018-11-26T00:30:08.960Z,55.87
2018-11-26T00:32:37.402Z,53.27
2018-11-26T00:35:05.930Z,49.50
2018-11-26T00:37:34.388Z,50.97
2018-11-26T00:40:02.908Z,47.70
2018-11-26T00:42:31.351Z,47.87
2018-11-26T00:44:59.803Z,48.47
2018-11-26T00:47:28.274Z,50.10
2018-11-26T00:49:56.718Z,47.37
2018-11-26T00:52:25.599Z,49.83
2018-11-26T00:54:54.050Z,45.50
2018-11-26T00:57:22.547Z,44.33
2018-11-26T00:59:51.007Z,55.80
2018-11-26T01:02:19.503Z,47.33
2018-11-26T01:04:47.969Z,50.87
2018-11-26T01:07:16.462Z,48.60
2018-11-26T01:09:44.898Z,47.90
2018-11-26T01:12:13.362Z,45.23
2018-11-26T01:14:42.144Z,51.03
2018-11-26T01:17:10.609Z,47.07
2018-11-26T01:19:39.062Z,46.23
2018-11-26T01:22:07.574Z,46.43
2018-11-26T01:24:36.031Z,46.67
2018-11-26T01:27:04.540Z,46.20
2018-11-26T01:29:32.991Z,43.50
2018-11-26T01:32:01.467Z,42.67
2018-11-26T01:34:29.933Z,49.90
2018-11-26T01:36:58.403Z,47.70
2018-11-26T01:39:27.344Z,51.93
2018-11-26T01:41:55.830Z,44.97
2018-11-26T01:44:24.278Z,43.50
2018-11-26T01:46:52.776Z,45.47
2018-11-26T01:49:21.214Z,47.33
2018-11-26T01:51:49.693Z,50.70
2018-11-26T01:54:18.163Z,45.37
2018-11-26T01:56:46.658Z,43.83
2018-11-26T01:59:15.110Z,44.20
2018-11-26T02:01:43.617Z,48.70
2018-11-26T02:04:12.439Z,46.27
2018-11-26T02:06:40.911Z,42.93
2018-11-26T02:09:09.363Z,44.57
2018-11-26T02:11:37.838Z,41.93
2018-11-26T02:14:06.314Z,47.10
2018-11-26T02:16:34.800Z,44.93
2018-11-26T02:19:03.274Z,44.77
2018-11-26T02:21:31.727Z,47.07
2018-11-26T02:24:00.211Z,43.20
2018-11-26T02:26:28.697Z,45.77
2018-11-26T02:28:57.153Z,42.03
2018-11-26T02:31:25.684Z,44.33
2018-11-26T02:33:54.153Z,40.80
2018-11-26T02:36:22.622Z,42.50
2018-11-26T02:38:51.098Z,41.13
2018-11-26T02:41:19.554Z,42.13
2018-11-26T02:43:48.038Z,44.50
2018-11-26T02:46:16.511Z,46.37
2018-11-26T02:48:44.974Z,42.23
2018-11-26T02:51:13.410Z,44.30
2018-11-26T02:53:41.871Z,43.77
2018-11-26T02:56:10.334Z,43.23
2018-11-26T02:58:38.846Z,44.57
2018-11-26T03:01:07.826Z,41.87
2018-11-26T03:03:36.333Z,43.30
2018-11-26T03:06:05.490Z,38.77
2018-11-26T03:08:33.981Z,41.43
2018-11-26T03:11:02.428Z,43.00
2018-11-26T03:13:30.910Z,37.63
2018-11-26T03:15:59.349Z,36.87
2018-11-26T03:18:42.266Z,42.03
2018-11-26T03:21:10.714Z,39.20
2018-11-26T03:23:39.183Z,40.83
2018-11-26T03:26:07.639Z,38.77
2018-11-26T03:28:36.095Z,37.17
2018-11-26T03:31:04.603Z,40.77
2018-11-26T03:33:33.234Z,40.77
2018-11-26T03:36:01.671Z,45.97
2018-11-26T03:39:00.763Z,39.37
2018-11-26T03:41:29.255Z,40.07
2018-11-26T03:43:57.762Z,40.00
2018-11-26T03:46:26.218Z,41.93
2018-11-26T03:48:54.693Z,43.17
2018-11-26T03:51:23.175Z,41.70
2018-11-26T03:53:51.628Z,40.40
2018-11-26T03:56:20.083Z,42.30
2018-11-26T03:58:48.539Z,44.33
2018-11-26T04:01:16.971Z,43.23
2018-11-26T04:03:45.423Z,41.93
2018-11-26T04:06:13.892Z,45.17
2018-11-26T04:08:42.358Z,43.83
2018-11-26T04:11:10.824Z,47.43
2018-11-26T04:13:39.292Z,43.33
2018-11-26T04:16:07.746Z,40.63
2018-11-26T04:18:36.227Z,43.73
2018-11-26T04:21:05.176Z,43.47
2018-11-26T04:23:33.649Z,44.43
2018-11-26T04:26:02.098Z,47.37
2018-11-26T04:28:30.559Z,43.17
2018-11-26T04:30:59.026Z,44.37
2018-11-26T04:33:27.496Z,45.50
2018-11-26T04:35:55.968Z,47.47
2018-11-26T04:38:24.434Z,45.03
2018-11-26T04:40:52.899Z,40.27
2018-11-26T04:43:21.358Z,43.97
2018-11-26T04:45:49.827Z,45.80
2018-11-26T04:48:18.283Z,41.17
2018-11-26T04:50:46.732Z,40.37
2018-11-26T04:53:15.210Z,38.93
2018-11-26T04:55:43.650Z,42.73
2018-11-26T04:58:12.135Z,38.43
2018-11-26T05:00:40.578Z,42.57
2018-11-26T05:03:09.042Z,39.00
2018-11-26T05:05:37.532Z,40.73
2018-11-26T05:08:06.063Z,39.93
2018-11-26T05:10:34.527Z,38.20
2018-11-26T05:13:02.983Z,41.00
2018-11-26T05:15:31.448Z,38.87
2018-11-26T05:18:00.241Z,43.10
2018-11-26T05:20:28.695Z,43.43
2018-11-26T05:22:57.146Z,40.47
2018-11-26T05:25:25.630Z,40.13
2018-11-26T05:27:54.087Z,42.70
2018-11-26T05:30:22.571Z,44.77
2018-11-26T05:32:51.003Z,40.23
2018-11-26T05:35:19.486Z,37.87
2018-11-26T05:37:47.939Z,44.43
2018-11-26T05:40:17.004Z,42.70
2018-11-26T05:42:45.647Z,38.57
2018-11-26T05:45:15.275Z,42.47
2018-11-26T05:47:43.718Z,42.27
2018-11-26T05:50:13.140Z,37.87
2018-11-26T05:52:41.790Z,42.53
2018-11-26T05:55:11.735Z,41.43
2018-11-26T05:57:40.557Z,40.27
2018-11-26T06:00:13.531Z,40.40
2018-11-26T06:02:41.990Z,43.87
2018-11-26T06:05:11.317Z,42.23
2018-11-26T06:07:39.783Z,38.67
2018-11-26T06:10:09.573Z,40.77
2018-11-26T06:12:38.034Z,42.90
2018-11-26T06:15:09.990Z,37.17
2018-11-26T06:17:38.442Z,44.30
2018-11-26T06:20:08.599Z,43.10
2018-11-26T06:22:37.066Z,40.83
2018-11-26T06:25:08.294Z,40.87
2018-11-26T06:27:36.762Z,45.07
2018-11-26T06:30:08.526Z,44.30
2018-11-26T06:32:36.971Z,44.27
2018-11-26T06:35:12.984Z,43.23
2018-11-26T06:37:41.457Z,46.33
2018-11-26T06:40:10.739Z,47.37
2018-11-26T06:42:39.186Z,43.47
2018-11-26T06:45:12.903Z,43.10
2018-11-26T06:47:41.799Z,50.07
2018-11-26T06:50:13.176Z,46.33
2018-11-26T06:52:41.670Z,56.27
2018-11-26T06:55:11.548Z,55.53
2018-11-26T06:57:39.990Z,50.13
2018-11-26T07:00:10.923Z,53.93
2018-11-26T07:02:39.438Z,55.37
2018-11-26T07:05:10.896Z,61.60
2018-11-26T07:07:39.343Z,61.00
2018-11-26T07:10:08.976Z,59.80
2018-11-26T07:12:37.425Z,63.87
2018-11-26T07:15:14.038Z,58.67
2018-11-26T07:17:42.539Z,62.73
2018-11-26T07:20:12.740Z,63.53
2018-11-26T07:22:41.212Z,67.23
2018-11-26T07:25:13.523Z,61.13
2018-11-26T07:27:42.361Z,62.57
2018-11-26T07:30:15.351Z,59.77
2018-11-26T07:32:44.290Z,61.00
2018-11-26T07:35:13.276Z,60.90
2018-11-26T07:37:41.959Z,57.73
2018-11-26T07:40:15.953Z,55.13
2018-11-26T07:42:46.902Z,56.47
2018-11-26T07:45:15.364Z,70.77
2018-11-26T07:47:43.807Z,59.17
2018-11-26T07:50:14.251Z,64.83
2018-11-26T07:52:42.753Z,62.20
2018-11-26T07:55:15.513Z,71.43
2018-11-26T07:57:44.083Z,63.23
2018-11-26T08:00:13.712Z,67.23
2018-11-26T08:02:42.787Z,65.10
2018-11-26T08:05:12.983Z,69.50
2018-11-26T08:07:41.479Z,63.57
2018-11-26T08:10:18.566Z,64.70
2018-11-26T08:12:47.912Z,74.03
2018-11-26T08:15:17.477Z,72.93
2018-11-26T08:17:45.934Z,65.70
2018-11-26T08:20:14.451Z,74.37
2018-11-26T08:22:42.909Z,75.03
2018-11-26T08:25:12.690Z,73.00
2018-11-26T08:27:41.672Z,70.27
2018-11-26T08:30:13.143Z,73.03
2018-11-26T08:32:41.767Z,74.93
2018-11-26T08:35:14.414Z,73.53
2018-11-26T08:37:48.130Z,78.17
2018-11-26T08:40:21.568Z,80.47
2018-11-26T08:42:55.418Z,77.23
2018-11-26T08:45:34.347Z,72.97
2018-11-26T08:48:09.991Z,71.60
2018-11-26T08:50:38.820Z,78.57
2018-11-26T08:53:07.286Z,79.30
2018-11-26T08:55:35.786Z,71.37
2018-11-26T08:58:04.278Z,68.53
2018-11-26T09:00:32.745Z,69.13
2018-11-26T09:03:03.254Z,71.03
2018-11-26T09:05:35.822Z,64.37
2018-11-26T09:08:04.321Z,68.87
2018-11-26T09:10:32.812Z,70.17
2018-11-26T09:13:01.322Z,76.13
2018-11-26T09:15:29.811Z,68.83
2018-11-26T09:17:58.322Z,62.90
2018-11-26T09:20:26.798Z,69.53
2018-11-26T09:22:55.670Z,70.67
2018-11-26T09:25:24.155Z,70.50
2018-11-26T09:27:52.654Z,69.80
2018-11-26T09:30:21.138Z,70.73
2018-11-26T09:32:49.635Z,70.27
2018-11-26T09:35:18.103Z,62.43
2018-11-26T09:37:46.583Z,65.40
2018-11-26T09:40:16.505Z,66.20
2018-11-26T09:42:45.115Z,69.03
2018-11-26T09:45:15.841Z,62.13
2018-11-26T09:47:44.455Z,64.33
2018-11-26T09:50:14.050Z,57.33
2018-11-26T09:52:42.560Z,58.07
2018-11-26T09:55:11.723Z,61.77
2018-11-26T09:57:40.231Z,58.93
2018-11-26T10:00:18.989Z,59.40
2018-11-26T10:02:48.774Z,56.00
2018-11-26T10:05:20.154Z,58.70
2018-11-26T10:07:48.671Z,57.80
2018-11-26T10:10:17.163Z,53.90
2018-11-26T10:12:45.887Z,53.60
2018-11-26T10:15:23.300Z,55.07
2018-11-26T10:17:51.898Z,54.43
2018-11-26T10:20:20.771Z,51.00
2018-11-26T10:22:50.574Z,52.20
2018-11-26T10:25:21.071Z,48.17
2018-11-26T10:27:49.913Z,53.30
2018-11-26T10:30:20.075Z,51.73
2018-11-26T10:32:49.427Z,53.57
2018-11-26T10:35:18.911Z,56.87
2018-11-26T10:37:47.799Z,54.07
2018-11-26T10:40:18.782Z,58.27
2018-11-26T10:42:47.299Z,54.13
2018-11-26T10:45:17.631Z,55.40
2018-11-26T10:47:46.121Z,48.07
2018-11-26T10:50:17.754Z,51.17
2018-11-26T10:52:52.190Z,53.87
2018-11-26T10:55:23.662Z,53.77
2018-11-26T10:57:52.194Z,47.00
2018-11-26T11:00:25.871Z,51.17
2018-11-26T11:02:54.371Z,44.00
2018-11-26T11:05:23.211Z,50.00
2018-11-26T11:07:51.705Z,45.63
2018-11-26T11:10:21.406Z,51.07
2018-11-26T11:12:49.998Z,47.13
2018-11-26T11:15:18.590Z,47.73
2018-11-26T11:17:47.099Z,51.80
2018-11-26T11:20:20.168Z,52.27
2018-11-26T11:22:48.690Z,43.40
2018-11-26T11:25:18.110Z,47.27
2018-11-26T11:27:46.770Z,44.37
2018-11-26T11:30:17.305Z,41.77
2018-11-26T11:32:46.162Z,42.63
2018-11-26T11:35:15.191Z,40.27
2018-11-26T11:37:44.508Z,45.13
2018-11-26T11:40:31.709Z,47.20
2018-11-26T11:43:00.764Z,44.40
2018-11-26T11:45:30.362Z,42.33
2018-11-26T11:47:58.891Z,42.17
2018-11-26T11:50:27.390Z,43.47
2018-11-26T11:52:55.891Z,43.83
2018-11-26T11:55:25.445Z,41.20
2018-11-26T11:57:53.952Z,40.33
2018-11-26T12:00:42.479Z,42.87
2018-11-26T12:03:18.146Z,37.77
2018-11-26T12:05:46.694Z,40.77
2018-11-26T12:08:15.724Z,40.27
2018-11-26T12:10:44.572Z,42.43
2018-11-26T12:13:14.077Z,47.80
2018-11-26T12:15:46.056Z,41.83
2018-11-26T12:18:14.519Z,46.90
2018-11-26T12:20:42.995Z,45.27
2018-11-26T12:23:11.525Z,41.00
2018-11-26T12:25:40.032Z,47.97
2018-11-26T12:28:08.673Z,47.00
2018-11-26T12:30:40.213Z,43.30
2018-11-26T12:33:08.757Z,43.23
2018-11-26T12:35:37.279Z,43.80
2018-11-26T12:38:05.839Z,44.87
2018-11-26T12:40:34.461Z,37.90
2018-11-26T12:43:04.292Z,40.93
2018-11-26T12:45:34.057Z,36.53
2018-11-26T12:48:02.722Z,37.77
2018-11-26T12:50:31.592Z,35.23
2018-11-26T12:53:00.138Z,38.80
2018-11-26T12:55:28.808Z,37.27
2018-11-26T12:57:57.935Z,38.27
2018-11-26T13:00:27.503Z,36.80
2018-11-26T13:02:57.161Z,40.40
2018-11-26T13:05:26.134Z,38.77
2018-11-26T13:07:54.620Z,40.23
2018-11-26T13:10:23.576Z,36.93
2018-11-26T13:12:52.507Z,40.03
2018-11-26T13:15:22.993Z,39.43
2018-11-26T13:17:51.498Z,39.30
2018-11-26T13:20:22.698Z,36.43
2018-11-26T13:22:52.132Z,38.83
2018-11-26T13:25:22.655Z,38.50
2018-11-26T13:27:53.192Z,38.00
2018-11-26T13:30:24.909Z,34.40
2018-11-26T13:32:55.009Z,34.63
2018-11-26T13:35:23.541Z,36.17
2018-11-26T13:37:52.066Z,31.37
2018-11-26T13:40:21.060Z,33.13
2018-11-26T13:42:49.935Z,31.73
2018-11-26T13:45:22.648Z,32.60
2018-11-26T13:47:51.181Z,34.53
2018-11-26T13:50:35.724Z,34.20
2018-11-26T13:53:04.256Z,37.27
2018-11-26T13:55:32.776Z,39.80
2018-11-26T13:58:01.244Z,39.47
2018-11-26T14:00:29.736Z,39.13
2018-11-26T14:02:58.212Z,37.83
2018-11-26T14:05:26.714Z,37.60
2018-11-26T14:07:55.245Z,38.63
2018-11-26T14:10:24.685Z,38.50
2018-11-26T14:12:56.216Z,38.37
2018-11-26T14:15:24.718Z,37.20
2018-11-26T14:17:53.181Z,35.63
2018-11-26T14:20:21.697Z,36.43
2018-11-26T14:22:50.612Z,33.67
2018-11-26T14:25:20.211Z,35.97
2018-11-26T14:27:49.116Z,36.80
2018-11-26T14:30:22.029Z,35.03
2018-11-26T14:32:50.894Z,33.57
2018-11-26T14:35:19.398Z,36.53
2018-11-26T14:37:50.216Z,30.77
2018-11-26T14:40:23.081Z,32.43
2018-11-26T14:42:51.648Z,27.23
2018-11-26T14:45:20.166Z,27.53
2018-11-26T14:47:49.032Z,27.73
2018-11-26T14:50:17.679Z,27.30
2018-11-26T14:52:47.287Z,30.00
2018-11-26T14:55:24.612Z,29.33
2018-11-26T14:57:53.096Z,26.73
2018-11-26T15:00:21.896Z,28.90
2018-11-26T15:02:50.476Z,28.83
2018-11-26T15:05:18.968Z,27.77
2018-11-26T15:07:47.502Z,31.63
2018-11-26T15:10:20.957Z,30.13
2018-11-26T15:12:49.881Z,28.67
2018-11-26T15:15:19.709Z,26.47
2018-11-26T15:17:48.245Z,28.30
2018-11-26T15:20:18.816Z,29.93
2018-11-26T15:22:47.612Z,29.80
2018-11-26T15:25:21.210Z,27.70
2018-11-26T15:27:50.146Z,31.40
2018-11-26T15:30:19.664Z,26.07
2018-11-26T15:32:48.323Z,27.30
2018-11-26T15:35:19.746Z,30.77
2018-11-26T15:37:48.354Z,34.63
2018-11-26T15:40:17.824Z,30.30
2018-11-26T15:42:46.368Z,27.30
2018-11-26T15:45:15.956Z,27.80
2018-11-26T15:47:44.470Z,32.10
2018-11-26T15:50:12.948Z,30.87
2018-11-26T15:52:42.110Z,29.97
2018-11-26T15:55:14.881Z,28.40
2018-11-26T15:57:43.483Z,30.03
2018-11-26T16:00:17.897Z,30.90
2018-11-26T16:02:46.593Z,30.10
2018-11-26T16:05:17.232Z,27.80
2018-11-26T16:07:46.049Z,29.10
2018-11-26T16:10:15.158Z,31.77
2018-11-26T16:12:44.435Z,28.67
2018-11-26T16:15:15.267Z,31.00
2018-11-26T16:17:44.158Z,28.93
2018-11-26T16:20:14.272Z,27.67
2018-11-26T16:22:42.964Z,29.93
2018-11-26T16:25:21.400Z,28.53
2018-11-26T16:27:49.959Z,28.57
2018-11-26T16:30:19.608Z,29.73
2018-11-26T16:32:50.397Z,28.33
2018-11-26T16:35:22.835Z,28.40
2018-11-26T16:37:51.436Z,26.27
2018-11-26T16:40:20.284Z,26.43
2018-11-26T16:42:48.816Z,26.80
2018-11-26T16:45:26.870Z,31.27
2018-11-26T16:47:56.027Z,29.83
2018-11-26T16:50:28.749Z,30.17
2018-11-26T16:52:57.286Z,27.07
2018-11-26T16:55:26.553Z,29.83
2018-11-26T16:57:55.078Z,27.10
2018-11-26T17:00:25.670Z,28.30
2018-11-26T17:02:55.244Z,30.37
2018-11-26T17:05:38.465Z,35.80
2018-11-26T17:08:08.415Z,34.20
2018-11-26T17:10:36.905Z,35.90
2018-11-26T17:13:06.179Z,34.03
2018-11-26T17:15:34.643Z,38.30
2018-11-26T17:18:03.141Z,38.50
2018-11-26T17:20:31.622Z,41.30
2018-11-26T17:23:00.123Z,38.33
2018-11-26T17:25:28.719Z,38.23
2018-11-26T17:27:57.230Z,39.40
2018-11-26T17:30:26.959Z,39.43
2018-11-26T17:33:00.893Z,37.03
2018-11-26T17:35:30.390Z,39.63
2018-11-26T17:37:58.920Z,37.43
2018-11-26T17:40:27.954Z,37.90
2018-11-26T17:42:56.676Z,41.80
2018-11-26T17:45:25.762Z,39.87
2018-11-26T17:47:55.638Z,36.63
2018-11-26T17:50:25.803Z,36.23
2018-11-26T17:52:54.334Z,38.77
2018-11-26T17:55:23.167Z,39.10
2018-11-26T17:57:51.719Z,42.00
2018-11-26T18:00:24.628Z,42.03
2018-11-26T18:02:53.112Z,41.33
2018-11-26T18:05:22.876Z,41.63
2018-11-26T18:07:54.396Z,46.67
2018-11-26T18:10:24.617Z,40.70
2018-11-26T18:12:53.112Z,39.70
2018-11-26T18:15:21.592Z,44.00
2018-11-26T18:17:50.201Z,39.90
2018-11-26T18:20:19.956Z,37.57
2018-11-26T18:22:49.671Z,38.43
2018-11-26T18:25:18.787Z,43.27
2018-11-26T18:27:50.429Z,40.03
2018-11-26T18:30:20.828Z,39.90
2018-11-26T18:32:49.324Z,43.03
2018-11-26T18:35:21.100Z,40.07
2018-11-26T18:37:49.604Z,37.37
2018-11-26T18:40:18.724Z,42.47
2018-11-26T18:42:47.229Z,40.13
2018-11-26T18:45:17.060Z,39.63
2018-11-26T18:47:46.144Z,36.40
2018-11-26T18:50:17.455Z,37.67
2018-11-26T18:52:46.485Z,41.10
2018-11-26T18:55:15.041Z,36.97
2018-11-26T18:57:44.048Z,39.23
2018-11-26T19:00:18.563Z,39.27
2018-11-26T19:02:47.103Z,38.47
2018-11-26T19:05:16.236Z,40.93
2018-11-26T19:07:44.731Z,36.63
2018-11-26T19:10:22.960Z,40.43
2018-11-26T19:14:58.609Z,38.77
2018-11-26T19:17:27.075Z,39.30
2018-11-26T19:19:55.560Z,36.47
2018-11-26T19:22:24.045Z,37.40
2018-11-26T19:24:52.644Z,41.40
2018-11-26T19:27:21.141Z,39.67
2018-11-26T19:29:49.648Z,39.17
2018-11-26T19:32:18.184Z,40.67
2018-11-26T19:34:46.685Z,39.63
2018-11-26T19:37:15.156Z,42.37
2018-11-26T19:39:43.703Z,40.33
2018-11-26T19:42:12.204Z,40.03
2018-11-26T19:44:40.728Z,39.43
2018-11-26T19:47:09.267Z,41.07
2018-11-26T19:49:37.843Z,39.63
2018-11-26T19:52:06.382Z,41.53
2018-11-26T19:54:34.912Z,41.00
2018-11-26T19:57:03.417Z,38.07
2018-11-26T19:59:31.967Z,37.33
2018-11-26T20:02:00.480Z,40.07
2018-11-26T20:04:32.262Z,40.87
2018-11-26T20:07:00.732Z,41.63
2018-11-26T20:09:29.216Z,42.77
2018-11-26T20:11:57.760Z,41.63
2018-11-26T20:14:26.251Z,39.73
2018-11-26T20:16:54.767Z,41.47
2018-11-26T20:19:23.256Z,36.33
2018-11-26T20:21:51.768Z,40.90
2018-11-26T20:24:20.313Z,42.47
2018-11-26T20:26:48.829Z,41.70
2018-11-26T20:29:17.325Z,39.57
2018-11-26T20:31:45.928Z,45.03
2018-11-26T20:34:14.787Z,41.33
2018-11-26T20:36:43.299Z,40.13
2018-11-26T20:39:11.817Z,39.63
2018-11-26T20:41:40.399Z,42.33
2018-11-26T20:44:09.276Z,45.90
2018-11-26T20:46:37.796Z,42.27
2018-11-26T20:49:08.523Z,40.97
2018-11-26T20:51:37.064Z,44.80
2018-11-26T20:54:06.192Z,40.73
2018-11-26T20:56:34.704Z,44.23
2018-11-26T20:59:03.234Z,42.80
2018-11-26T21:01:31.785Z,41.93
2018-11-26T21:04:00.437Z,40.73
2018-11-26T21:06:29.015Z,42.13
2018-11-26T21:08:57.582Z,39.60
2018-11-26T21:11:26.085Z,39.03
2018-11-26T21:13:54.623Z,41.57
2018-11-26T21:16:23.222Z,43.00
2018-11-26T21:18:51.758Z,35.80
2018-11-26T21:21:20.361Z,38.63
2018-11-26T21:23:48.963Z,40.90
2018-11-26T21:26:17.855Z,39.10
2018-11-26T21:28:46.424Z,42.47
2018-11-26T21:31:14.921Z,41.33
2018-11-26T21:33:43.552Z,40.10
2018-11-26T21:36:12.105Z,41.80
2018-11-26T21:38:41.209Z,36.37
2018-11-26T21:41:09.748Z,40.00
2018-11-26T21:43:38.396Z,37.17
2018-11-26T21:46:07.685Z,39.70
2018-11-26T21:48:36.424Z,38.07
2018-11-26T21:51:05.056Z,44.80
2018-11-26T21:53:33.677Z,41.70
2018-11-26T21:56:02.196Z,40.20
2018-11-26T21:58:30.710Z,42.30
2018-11-26T22:01:00.492Z,40.20
2018-11-26T22:03:30.620Z,36.60
2018-11-26T22:05:57.581Z,39.60
2018-11-26T22:08:26.071Z,40.83
2018-11-26T22:10:54.644Z,37.20
2018-11-26T22:13:23.117Z,40.80
2018-11-26T22:15:51.596Z,38.77
2018-11-26T22:18:20.117Z,43.23
2018-11-26T22:20:48.572Z,39.93
2018-11-26T22:23:17.413Z,41.87
2018-11-26T22:25:45.991Z,39.40
2018-11-26T22:28:14.509Z,39.63
2018-11-26T22:30:43.717Z,44.47
2018-11-26T22:33:12.284Z,41.20
2018-11-26T22:35:40.796Z,42.73
2018-11-26T22:38:09.852Z,38.03
2018-11-26T22:40:38.337Z,42.27
2018-11-26T22:43:06.892Z,42.67
2018-11-26T22:45:35.627Z,42.73
2018-11-26T22:48:07.034Z,41.30
2018-11-26T22:50:36.328Z,49.80
2018-11-26T22:53:04.974Z,41.57
2018-11-26T22:55:33.896Z,42.50
2018-11-26T22:58:02.385Z,45.33
2018-11-26T23:00:38.490Z,42.87
2018-11-26T23:03:07.474Z,44.87
2018-11-26T23:05:35.964Z,45.73
2018-11-26T23:08:04.772Z,42.17
2018-11-26T23:10:33.265Z,43.77
2018-11-26T23:13:01.768Z,45.43
2018-11-26T23:15:30.669Z,45.67
2018-11-26T23:17:59.154Z,43.80
2018-11-26T23:20:28.428Z,44.80
2018-11-26T23:22:56.920Z,46.50
2018-11-26T23:25:25.697Z,42.17
2018-11-26T23:27:54.203Z,44.17
2018-11-26T23:30:24.616Z,45.03
2018-11-26T23:32:54.616Z,48.90
2018-11-26T23:35:23.088Z,45.93
2018-11-26T23:37:51.712Z,48.43
2018-11-26T23:40:20.544Z,44.93
2018-11-26T23:42:49.808Z,46.20
2018-11-26T23:45:19.252Z,46.57
2018-11-26T23:47:49.070Z,48.77
2018-11-26T23:50:18.327Z,48.70
2018-11-26T23:52:47.265Z,45.53
2018-11-26T23:55:18.744Z,50.53
2018-11-26T23:57:47.613Z,52.83
